Time;durP1;ratioP1;P1;durP2;ratioP2;P2;SDS_P1;SDS_P2;PMS_P1;PMS_P2;Temp;Humidity;BMP_temperature;BMP_pressure;BME280_temperature;BME280_humidity;BME280_pressure;Samples;Min_cycle;Max_cycle;Signal;HPM_P1;HPM_P2
2023/06/28 00:01:30;;;;;;;;;12.50;12.00;28.00;53.50;;;;;;111261;1243;44870;-62
2023/06/28 00:04:04;;;;;;;;;11.33;11.00;28.00;53.00;;;;;;111190;1243;49283;-62
2023/06/28 00:06:32;;;;;;;;;13.00;11.25;28.00;53.10;;;;;;111479;1242;48955;-62
2023/06/28 00:08:59;;;;;;;;;10.75;10.00;28.00;53.20;;;;;;111285;1243;53803;-63
2023/06/28 00:11:28;;;;;;;;;13.75;13.00;28.00;53.30;;;;;;111238;1239;45248;-62
2023/06/28 00:13:55;;;;;;;;;10.25;9.25;28.00;53.00;;;;;;111273;1244;49674;-62
2023/06/28 00:16:22;;;;;;;;;12.50;11.25;28.00;53.00;;;;;;111298;1240;49226;-61
2023/06/28 00:18:49;;;;;;;;;11.00;10.00;28.00;52.60;;;;;;111275;1243;54149;-62
2023/06/28 00:21:16;;;;;;;;;13.25;12.25;28.00;52.90;;;;;;111299;1240;45141;-63
2023/06/28 00:23:43;;;;;;;;;12.00;11.33;28.00;53.00;;;;;;111280;1240;49589;-61
2023/06/28 00:26:10;;;;;;;;;12.00;11.00;28.00;53.20;;;;;;111236;1243;49735;-62
2023/06/28 00:28:37;;;;;;;;;12.00;10.50;28.00;53.00;;;;;;111245;1243;54153;-62
2023/06/28 00:31:04;;;;;;;;;12.67;11.67;28.00;53.00;;;;;;111325;1238;44474;-62
2023/06/28 00:33:31;;;;;;;;;12.00;11.00;27.90;52.90;;;;;;111297;1239;48989;-61
2023/06/28 00:35:59;;;;;;;;;12.33;11.00;27.90;53.10;;;;;;111348;1238;49621;-62
2023/06/28 00:38:26;;;;;;;;;12.00;11.00;27.90;53.00;;;;;;111249;1239;54731;-62
2023/06/28 00:40:53;;;;;;;;;10.75;10.00;27.90;52.90;;;;;;111283;1243;44651;-63
2023/06/28 00:43:20;;;;;;;;;11.75;10.25;27.90;53.10;;;;;;111255;1244;50178;-64
2023/06/28 00:45:47;;;;;;;;;12.00;11.00;27.90;52.90;;;;;;111229;1244;49814;-63
2023/06/28 00:48:14;;;;;;;;;13.25;11.25;27.90;52.90;;;;;;111341;1244;53657;-62
2023/06/28 00:50:41;;;;;;;;;11.00;11.00;27.90;53.00;;;;;;111217;1245;44340;-62
2023/06/28 00:53:08;;;;;;;;;12.00;11.00;27.90;52.90;;;;;;111250;1243;49723;-62
2023/06/28 00:55:35;;;;;;;;;14.00;12.50;27.90;52.90;;;;;;111269;1243;50118;-62
2023/06/28 00:58:02;;;;;;;;;11.00;10.67;27.90;53.50;;;;;;111241;1243;54119;-63
2023/06/28 01:00:29;;;;;;;;;13.25;11.00;27.90;52.90;;;;;;111227;1243;45016;-64
2023/06/28 01:02:57;;;;;;;;;11.25;10.75;27.90;52.90;;;;;;111269;1244;48763;-64
2023/06/28 01:05:24;;;;;;;;;12.50;10.50;27.80;53.00;;;;;;111236;1244;50231;-64
2023/06/28 01:07:52;;;;;;;;;10.00;10.00;27.80;53.00;;;;;;111310;1244;54161;-62
2023/06/28 01:10:19;;;;;;;;;11.00;10.33;27.80;52.90;;;;;;111289;1242;45348;-63
2023/06/28 01:12:47;;;;;;;;;12.00;10.25;27.80;52.90;;;;;;111337;1238;49304;-62
2023/06/28 01:15:14;;;;;;;;;11.67;10.33;27.80;53.10;;;;;;111339;1243;49268;-63
2023/06/28 01:17:42;;;;;;;;;11.33;11.00;27.80;53.00;;;;;;111203;1244;54802;-63
2023/06/28 01:20:09;;;;;;;;;13.33;12.00;27.80;53.00;;;;;;111313;1244;44703;-63
2023/06/28 01:22:40;;;;;;;;;12.75;12.50;27.80;53.20;;;;;;111279;1243;49023;-62
2023/06/28 01:25:09;;;;;;;;;12.25;11.25;27.80;53.20;;;;;;111295;1243;49549;-63
2023/06/28 01:27:42;;;;;;;;;12.00;11.25;27.80;53.00;;;;;;111269;1240;54941;-64
2023/06/28 01:30:12;;;;;;;;;9.75;9.00;27.80;52.90;;;;;;111291;1243;44399;-63
2023/06/28 01:32:39;;;;;;;;;14.00;13.00;27.80;52.90;;;;;;111290;1243;48778;-65
2023/06/28 01:35:07;;;;;;;;;12.00;11.00;27.80;52.90;;;;;;111414;1239;49305;-63
2023/06/28 01:37:34;;;;;;;;;11.75;11.00;27.80;52.90;;;;;;111255;1240;54053;-62
2023/06/28 01:40:02;;;;;;;;;10.50;10.00;27.80;53.10;;;;;;111296;1244;44456;-65
2023/06/28 01:42:29;;;;;;;;;13.00;11.00;27.80;52.90;;;;;;111290;1242;49444;-64
2023/06/28 01:44:56;;;;;;;;;12.75;11.75;27.80;52.90;;;;;;111347;1244;49545;-64
2023/06/28 01:47:23;;;;;;;;;12.25;11.00;27.80;53.00;;;;;;111224;1244;53571;-61
2023/06/28 01:49:50;;;;;;;;;13.50;11.50;27.70;52.90;;;;;;111221;1241;44283;-62
2023/06/28 01:52:17;;;;;;;;;12.00;10.00;27.70;53.10;;;;;;111221;1241;49652;-61
2023/06/28 01:54:44;;;;;;;;;11.25;10.75;27.70;53.00;;;;;;111224;1240;49355;-62
2023/06/28 01:57:11;;;;;;;;;12.33;11.00;27.70;53.00;;;;;;111320;1244;53946;-64
2023/06/28 01:59:38;;;;;;;;;14.00;12.50;27.70;53.20;;;;;;111228;1248;44216;-63
2023/06/28 02:02:05;;;;;;;;;10.00;9.00;27.70;52.90;;;;;;111220;1243;48937;-62
2023/06/28 02:04:32;;;;;;;;;11.00;11.00;27.70;53.10;;;;;;111304;1244;50301;-62
2023/06/28 02:06:59;;;;;;;;;10.00;9.75;27.70;53.00;;;;;;111339;1241;54921;-62
2023/06/28 02:09:26;;;;;;;;;11.00;10.00;27.70;53.00;;;;;;111228;1239;44598;-61
2023/06/28 02:11:53;;;;;;;;;12.00;10.25;27.70;53.00;;;;;;111307;1244;50054;-62
2023/06/28 02:14:20;;;;;;;;;12.33;12.00;27.70;53.00;;;;;;111318;1243;50396;-62
2023/06/28 02:16:47;;;;;;;;;13.00;12.50;27.70;53.00;;;;;;111189;1244;53533;-62
2023/06/28 02:19:15;;;;;;;;;12.00;10.00;27.60;52.90;;;;;;111238;1244;44248;-66
2023/06/28 02:21:42;;;;;;;;;11.75;11.50;27.60;52.90;;;;;;111191;1244;49452;-61
2023/06/28 02:24:09;;;;;;;;;10.00;9.00;27.60;52.90;;;;;;111225;1244;50522;-62
2023/06/28 02:26:36;;;;;;;;;11.25;10.25;27.60;53.00;;;;;;111273;1244;55247;-62
2023/06/28 02:29:03;;;;;;;;;13.50;12.00;27.60;53.00;;;;;;111184;1243;44580;-62
2023/06/28 02:31:30;;;;;;;;;11.50;11.00;27.60;52.90;;;;;;111219;1245;49510;-61
2023/06/28 02:33:57;;;;;;;;;10.00;9.25;27.60;53.00;;;;;;111265;1244;48913;-62
2023/06/28 02:36:24;;;;;;;;;11.00;10.25;27.60;53.10;;;;;;111188;1244;53933;-62
2023/06/28 02:38:51;;;;;;;;;15.25;12.50;27.60;53.00;;;;;;111283;1240;44802;-62
2023/06/28 02:41:18;;;;;;;;;12.00;11.00;27.60;53.00;;;;;;111506;1240;49907;-63
2023/06/28 02:43:45;;;;;;;;;9.00;9.00;27.60;53.00;;;;;;111286;1243;49182;-63
2023/06/28 02:46:12;;;;;;;;;10.25;9.25;27.60;53.00;;;;;;111299;1244;53903;-61
2023/06/28 02:48:39;;;;;;;;;9.00;8.50;27.60;53.10;;;;;;111204;1243;45651;-61
2023/06/28 02:51:06;;;;;;;;;11.25;10.25;27.60;53.10;;;;;;111191;1240;49240;-62
2023/06/28 02:53:32;;;;;;;;;10.00;9.00;27.60;53.30;;;;;;111266;1243;49196;-62
2023/06/28 02:55:59;;;;;;;;;12.00;10.00;27.50;53.20;;;;;;111186;1243;54458;-61
2023/06/28 02:58:26;;;;;;;;;13.33;12.67;27.50;53.00;;;;;;111221;1243;45016;-62
2023/06/28 03:00:54;;;;;;;;;10.75;10.00;27.50;53.40;;;;;;111187;1238;48941;-63
2023/06/28 03:03:22;;;;;;;;;11.00;10.00;27.50;53.20;;;;;;111240;1240;49665;-63
2023/06/28 03:05:49;;;;;;;;;11.33;10.67;27.50;53.00;;;;;;111234;1243;54893;-64
2023/06/28 03:08:16;;;;;;;;;12.00;10.00;27.50;53.10;;;;;;111264;1240;44640;-62
2023/06/28 03:10:43;;;;;;;;;10.50;9.00;27.50;53.00;;;;;;111244;1240;49741;-61
2023/06/28 03:13:10;;;;;;;;;11.00;10.67;27.50;53.00;;;;;;111213;1240;49262;-62
2023/06/28 03:15:37;;;;;;;;;12.00;10.33;27.50;53.10;;;;;;111216;1238;53329;-60
2023/06/28 03:18:03;;;;;;;;;10.00;9.33;27.50;53.10;;;;;;111175;1243;44393;-62
2023/06/28 03:20:30;;;;;;;;;11.00;10.00;27.50;53.00;;;;;;111278;1239;50317;-63
2023/06/28 03:22:58;;;;;;;;;12.50;10.00;27.50;53.10;;;;;;111283;1244;49107;-62
2023/06/28 03:25:24;;;;;;;;;11.50;10.75;27.50;53.10;;;;;;111247;1244;54738;-62
2023/06/28 03:27:51;;;;;;;;;12.00;11.25;27.50;53.10;;;;;;111183;1243;45233;-62
2023/06/28 03:30:18;;;;;;;;;10.00;9.50;27.50;53.10;;;;;;111239;1240;49142;-62
2023/06/28 03:32:45;;;;;;;;;10.50;10.00;27.50;53.30;;;;;;111268;1238;49929;-63
2023/06/28 03:35:13;;;;;;;;;11.50;11.00;27.50;53.10;;;;;;111241;1242;53901;-62
2023/06/28 03:37:39;;;;;;;;;11.50;10.50;27.50;53.10;;;;;;111226;1243;45169;-61
2023/06/28 03:40:08;;;;;;;;;11.25;10.25;27.50;53.10;;;;;;111196;1241;49430;-62
2023/06/28 03:42:35;;;;;;;;;10.75;10.50;27.40;53.20;;;;;;111230;1243;49584;-62
2023/06/28 03:45:02;;;;;;;;;11.25;10.25;27.40;53.10;;;;;;111311;1243;53505;-62
2023/06/28 03:47:29;;;;;;;;;10.50;9.00;27.40;53.10;;;;;;111313;1242;44930;-62
2023/06/28 03:49:56;;;;;;;;;12.33;11.00;27.40;53.10;;;;;;111208;1243;49640;-63
2023/06/28 03:52:23;;;;;;;;;12.75;11.00;27.40;53.00;;;;;;111289;1243;49118;-62
2023/06/28 03:54:50;;;;;;;;;11.00;9.25;27.40;53.30;;;;;;111300;1243;53947;-65
2023/06/28 03:57:17;;;;;;;;;11.00;9.25;27.40;53.10;;;;;;111287;1240;44683;-62
2023/06/28 03:59:44;;;;;;;;;12.50;11.75;27.40;53.70;;;;;;111258;1243;49586;-60
2023/06/28 04:02:11;;;;;;;;;10.00;9.00;27.40;53.00;;;;;;111338;1243;49504;-61
2023/06/28 04:04:38;;;;;;;;;10.75;10.00;27.40;53.00;;;;;;111337;1243;53134;-63
2023/06/28 04:07:05;;;;;;;;;11.75;10.75;27.40;52.60;;;;;;111235;1240;44948;-62
2023/06/28 04:09:33;;;;;;;;;10.25;9.25;27.40;53.20;;;;;;111327;1243;49418;-61
2023/06/28 04:12:00;;;;;;;;;10.00;10.00;27.40;53.00;;;;;;111302;1243;50350;-61
2023/06/28 04:14:27;;;;;;;;;10.25;9.25;27.40;53.00;;;;;;111280;1239;55175;-62
2023/06/28 04:16:54;;;;;;;;;10.00;9.25;27.40;52.90;;;;;;111231;1244;44999;-62
2023/06/28 04:19:21;;;;;;;;;11.00;11.00;27.50;53.00;;;;;;111302;1239;49439;-62
2023/06/28 04:21:48;;;;;;;;;9.33;8.67;27.40;52.40;;;;;;111279;1240;49778;-62
2023/06/28 04:24:16;;;;;;;;;11.25;10.50;27.40;52.90;;;;;;111236;1240;53994;-62
2023/06/28 04:26:42;;;;;;;;;12.25;12.00;27.40;53.10;;;;;;111205;1243;45399;-62
2023/06/28 04:29:09;;;;;;;;;11.00;9.75;27.40;53.10;;;;;;111210;1240;49160;-63
2023/06/28 04:31:36;;;;;;;;;12.00;11.50;27.40;52.90;;;;;;111384;1238;49676;-63
2023/06/28 04:34:03;;;;;;;;;10.00;10.00;27.40;52.90;;;;;;111377;1243;54458;-62
2023/06/28 04:36:30;;;;;;;;;11.00;10.00;27.40;52.90;;;;;;111252;1240;45470;-63
2023/06/28 04:38:57;;;;;;;;;10.75;9.75;27.40;52.90;;;;;;111256;1238;50370;-62
2023/06/28 04:41:27;;;;;;;;;10.00;9.33;27.40;52.90;;;;;;111346;1240;50084;-62
2023/06/28 04:43:57;;;;;;;;;10.33;9.33;27.40;52.90;;;;;;111204;1243;54319;-62
2023/06/28 04:46:28;;;;;;;;;10.00;9.67;27.40;52.90;;;;;;111370;1240;44384;-61
2023/06/28 04:48:56;;;;;;;;;10.00;9.00;27.40;52.90;;;;;;111239;1243;49690;-63
2023/06/28 04:51:23;;;;;;;;;12.00;9.25;27.40;52.90;;;;;;111214;1240;48934;-62
2023/06/28 04:53:50;;;;;;;;;12.00;11.00;27.40;52.90;;;;;;111282;1238;53315;-63
2023/06/28 04:56:17;;;;;;;;;10.75;9.75;27.40;53.30;;;;;;111359;1240;44857;-63
2023/06/28 04:58:44;;;;;;;;;11.00;10.00;27.40;53.10;;;;;;111323;1240;49513;-63
2023/06/28 05:01:11;;;;;;;;;10.25;9.25;27.40;52.90;;;;;;111243;1243;49103;-68
2023/06/28 05:03:38;;;;;;;;;10.25;9.25;27.40;52.90;;;;;;111356;1239;53573;-63
2023/06/28 05:06:06;;;;;;;;;12.25;11.00;27.30;52.80;;;;;;111337;1243;44191;-62
2023/06/28 05:08:33;;;;;;;;;11.00;10.67;27.30;52.90;;;;;;111231;1242;50101;-62
2023/06/28 05:11:03;;;;;;;;;11.33;9.67;27.30;52.90;;;;;;111191;1244;49658;-61
2023/06/28 05:13:31;;;;;;;;;10.33;10.00;27.30;52.90;;;;;;111232;1239;54022;-61
2023/06/28 05:15:58;;;;;;;;;10.25;9.75;27.30;53.00;;;;;;111227;1244;44889;-62
2023/06/28 05:18:25;;;;;;;;;11.00;9.67;27.30;53.00;;;;;;111235;1239;49005;-63
2023/06/28 05:20:52;;;;;;;;;11.50;10.00;27.30;53.20;;;;;;111211;1244;50178;-62
2023/06/28 05:23:23;;;;;;;;;11.75;10.75;27.20;52.90;;;;;;111242;1244;54531;-62
2023/06/28 05:25:51;;;;;;;;;10.50;10.00;27.20;52.90;;;;;;111265;1243;44936;-63
2023/06/28 05:28:17;;;;;;;;;11.33;11.00;27.20;53.00;;;;;;111268;1243;49491;-66
2023/06/28 05:30:45;;;;;;;;;10.25;9.50;27.30;52.90;;;;;;111227;1240;49772;-62
2023/06/28 05:33:12;;;;;;;;;10.00;9.00;27.20;52.90;;;;;;111243;1239;54334;-62
2023/06/28 05:35:39;;;;;;;;;10.00;9.25;27.20;53.10;;;;;;111280;1243;44763;-62
2023/06/28 05:38:06;;;;;;;;;10.75;9.25;27.20;53.10;;;;;;111331;1238;49306;-61
2023/06/28 05:40:33;;;;;;;;;12.50;10.75;27.20;52.90;;;;;;111214;1244;49844;-63
2023/06/28 05:43:01;;;;;;;;;11.00;9.75;27.20;52.90;;;;;;111346;1243;53862;-62
2023/06/28 05:45:29;;;;;;;;;11.25;10.50;27.20;52.90;;;;;;111360;1243;44894;-61
2023/06/28 05:47:58;;;;;;;;;10.50;9.50;27.20;53.00;;;;;;111221;1243;49686;-62
2023/06/28 05:50:26;;;;;;;;;11.00;10.25;27.20;52.90;;;;;;111328;1241;48887;-63
2023/06/28 05:52:53;;;;;;;;;11.00;10.00;27.20;52.90;;;;;;111217;1243;53747;-62
2023/06/28 05:55:20;;;;;;;;;13.00;11.00;27.20;52.90;;;;;;111205;1243;45049;-62
2023/06/28 05:57:47;;;;;;;;;10.33;10.00;27.20;52.90;;;;;;111207;1243;49079;-61
2023/06/28 06:00:15;;;;;;;;;12.00;11.00;27.20;52.90;;;;;;111299;1243;49403;-63
2023/06/28 06:02:42;;;;;;;;;9.25;9.00;27.20;52.90;;;;;;111212;1239;53898;-61
2023/06/28 06:05:13;;;;;;;;;9.25;9.00;27.20;52.90;;;;;;111259;1245;44937;-62
2023/06/28 06:07:40;;;;;;;;;11.00;10.25;27.20;52.90;;;;;;111262;1239;48972;-62
2023/06/28 06:10:09;;;;;;;;;9.00;9.00;27.20;53.20;;;;;;111197;1240;49075;-62
2023/06/28 06:12:36;;;;;;;;;11.00;10.00;27.20;52.90;;;;;;111285;1244;54075;-62
2023/06/28 06:15:05;;;;;;;;;12.50;10.75;27.20;52.90;;;;;;111269;1243;44149;-62
2023/06/28 06:17:32;;;;;;;;;11.00;10.00;27.20;52.90;;;;;;111231;1243;49753;-62
2023/06/28 06:20:00;;;;;;;;;10.00;9.25;27.20;52.90;;;;;;111286;1244;50702;-62
2023/06/28 06:22:27;;;;;;;;;9.67;8.33;27.20;52.90;;;;;;111251;1240;55113;-63
2023/06/28 06:24:54;;;;;;;;;9.50;9.00;27.20;52.90;;;;;;111302;1239;44662;-61
2023/06/28 06:27:21;;;;;;;;;10.00;10.00;27.10;53.10;;;;;;111264;1239;49891;-63
2023/06/28 06:29:48;;;;;;;;;10.25;9.25;27.10;52.90;;;;;;111193;1243;49647;-62
2023/06/28 06:32:15;;;;;;;;;10.00;9.50;27.10;52.90;;;;;;111289;1240;54697;-61
2023/06/28 06:34:44;;;;;;;;;10.50;10.00;27.10;52.90;;;;;;111239;1240;43953;-61
2023/06/28 06:37:12;;;;;;;;;10.50;10.00;27.10;53.10;;;;;;111309;1244;50143;-64
2023/06/28 06:39:40;;;;;;;;;11.67;10.67;27.10;52.90;;;;;;111276;1240;49706;-66
2023/06/28 06:42:07;;;;;;;;;10.67;9.67;27.10;53.10;;;;;;111293;1243;53251;-62
2023/06/28 06:44:34;;;;;;;;;9.75;9.00;27.10;53.10;;;;;;111272;1244;44704;-62
2023/06/28 06:47:03;;;;;;;;;10.75;10.00;27.10;53.10;;;;;;111231;1243;49472;-63
2023/06/28 06:49:30;;;;;;;;;9.00;8.00;27.10;52.90;;;;;;111227;1243;49595;-63
2023/06/28 06:51:58;;;;;;;;;8.75;8.00;27.10;52.90;;;;;;111288;1240;54193;-62
2023/06/28 06:54:24;;;;;;;;;10.00;9.33;27.10;52.90;;;;;;111270;1239;45610;-61
2023/06/28 06:56:51;;;;;;;;;9.25;8.25;27.10;52.90;;;;;;111235;1242;49890;-62
2023/06/28 06:59:19;;;;;;;;;11.00;10.00;27.10;52.90;;;;;;111278;1240;49419;-62
2023/06/28 07:01:46;;;;;;;;;11.75;10.00;27.10;52.90;;;;;;111240;1240;53395;-63
2023/06/28 07:04:13;;;;;;;;;10.00;9.00;27.10;52.90;;;;;;111254;1239;45717;-61
2023/06/28 07:06:40;;;;;;;;;10.25;9.50;27.10;53.40;;;;;;111224;1238;48796;-63
2023/06/28 07:09:07;;;;;;;;;10.00;9.25;27.10;53.10;;;;;;111286;1244;49708;-63
2023/06/28 07:11:34;;;;;;;;;8.75;8.00;27.10;52.90;;;;;;111359;1243;53390;-62
2023/06/28 07:14:01;;;;;;;;;10.33;9.67;27.10;52.90;;;;;;111225;1243;44766;-63
2023/06/28 07:16:28;;;;;;;;;12.75;11.25;27.10;52.90;;;;;;111320;1240;49476;-63
2023/06/28 07:18:55;;;;;;;;;8.50;8.25;27.10;52.90;;;;;;111460;1238;50163;-62
2023/06/28 07:21:22;;;;;;;;;11.00;10.00;27.10;53.00;;;;;;111262;1243;53827;-62
2023/06/28 07:23:49;;;;;;;;;10.00;10.00;27.10;53.00;;;;;;111274;1239;44950;-67
2023/06/28 07:26:17;;;;;;;;;11.25;9.25;27.00;53.20;;;;;;111238;1243;49436;-62
2023/06/28 07:28:44;;;;;;;;;9.33;8.33;27.00;53.00;;;;;;111211;1240;49607;-64
2023/06/28 07:31:11;;;;;;;;;10.75;9.00;27.00;53.00;;;;;;111215;1243;53366;-66
2023/06/28 07:33:40;;;;;;;;;10.00;10.00;27.00;53.00;;;;;;111207;1243;44508;-64
2023/06/28 07:36:07;;;;;;;;;11.00;10.00;27.00;53.00;;;;;;111131;1241;49626;-62
2023/06/28 07:38:34;;;;;;;;;10.00;9.00;27.00;53.00;;;;;;111211;1243;49174;-64
2023/06/28 07:41:02;;;;;;;;;11.00;9.75;27.00;53.00;;;;;;111193;1244;53853;-63
2023/06/28 07:53:47;;;;;;;;;10.00;9.00;27.50;52.40;;;;;;107857;1279;34755;-62
2023/06/28 07:56:14;;;;;;;;;10.67;9.67;27.50;52.10;;;;;;110128;1253;48324;-62
2023/06/28 07:58:40;;;;;;;;;9.00;8.00;27.50;52.10;;;;;;110000;1256;54058;-64
2023/06/28 08:01:08;;;;;;;;;10.00;9.00;27.50;52.20;;;;;;110053;1253;44267;-63
2023/06/28 08:03:35;;;;;;;;;9.67;8.33;27.40;52.40;;;;;;110043;1253;49443;-62
2023/06/28 08:06:02;;;;;;;;;10.00;9.50;27.40;52.50;;;;;;110054;1252;49664;-64
2023/06/28 08:08:29;;;;;;;;;11.00;10.25;27.30;52.40;;;;;;109764;1253;669489;-65
2023/06/28 08:10:56;;;;;;;;;8.50;8.25;27.30;52.40;;;;;;110349;1250;45783;-62
2023/06/28 08:13:23;;;;;;;;;11.25;11.00;27.30;52.50;;;;;;110230;1253;48990;-62
2023/06/28 08:15:50;;;;;;;;;11.00;9.75;27.20;52.80;;;;;;110269;1254;49208;-63
2023/06/28 08:18:17;;;;;;;;;10.00;9.25;27.20;52.80;;;;;;110276;1254;54792;-63
2023/06/28 08:20:44;;;;;;;;;11.25;10.25;27.20;52.70;;;;;;110325;1250;44360;-62
2023/06/28 08:23:11;;;;;;;;;9.00;8.75;27.20;52.70;;;;;;110374;1254;49053;-63
2023/06/28 08:25:38;;;;;;;;;10.67;10.00;27.20;52.80;;;;;;110304;1250;49624;-63
2023/06/28 08:28:05;;;;;;;;;11.00;10.00;27.10;52.70;;;;;;110263;1250;54163;-67
2023/06/28 08:30:32;;;;;;;;;9.00;9.00;27.10;52.70;;;;;;110241;1250;44622;-62
2023/06/28 08:32:59;;;;;;;;;10.00;9.00;27.10;52.80;;;;;;110252;1250;49398;-64
2023/06/28 08:35:26;;;;;;;;;10.25;9.25;27.10;52.80;;;;;;110237;1254;48938;-62
2023/06/28 08:37:53;;;;;;;;;9.75;8.00;27.10;52.90;;;;;;110248;1254;54125;-62
2023/06/28 08:40:20;;;;;;;;;9.00;8.00;27.10;52.90;;;;;;110365;1251;44964;-62
2023/06/28 08:42:48;;;;;;;;;9.33;8.33;27.10;52.90;;;;;;110333;1253;48738;-63
2023/06/28 08:45:15;;;;;;;;;10.75;9.25;27.10;52.90;;;;;;110330;1253;48506;-62
2023/06/28 08:47:42;;;;;;;;;9.33;8.67;27.10;53.00;;;;;;110329;1253;53438;-62
2023/06/28 08:50:10;;;;;;;;;9.00;8.33;27.10;53.10;;;;;;110140;1250;44908;-63
2023/06/28 08:52:39;;;;;;;;;9.00;8.00;27.10;53.10;;;;;;110196;1256;49548;-63
2023/06/28 08:55:06;;;;;;;;;10.33;9.67;27.10;52.90;;;;;;110320;1250;49135;-69
2023/06/28 08:57:34;;;;;;;;;10.25;9.25;27.10;53.20;;;;;;110247;1254;53788;-63
2023/06/28 09:00:03;;;;;;;;;10.00;9.25;27.10;52.90;;;;;;110277;1250;44918;-63
2023/06/28 09:02:32;;;;;;;;;10.67;10.00;27.10;53.10;;;;;;110254;1254;49325;-63
2023/06/28 09:05:01;;;;;;;;;11.00;10.00;27.10;53.10;;;;;;110285;1250;49527;-63
2023/06/28 09:07:28;;;;;;;;;9.00;8.00;27.10;53.00;;;;;;110161;1251;53219;-63
2023/06/28 09:09:55;;;;;;;;;10.25;10.00;27.10;52.90;;;;;;110123;1251;44170;-63
2023/06/28 09:12:23;;;;;;;;;9.00;9.00;27.10;53.10;;;;;;110131;1255;49043;-62
2023/06/28 09:14:50;;;;;;;;;8.50;8.00;27.10;52.90;;;;;;110228;1252;49141;-65
2023/06/28 09:17:16;;;;;;;;;9.75;9.25;27.10;52.90;;;;;;110337;1251;54347;-62
2023/06/28 09:19:43;;;;;;;;;9.00;8.00;27.10;52.90;;;;;;110249;1250;44996;-62
2023/06/28 09:22:10;;;;;;;;;9.25;8.50;27.10;53.10;;;;;;110288;1250;49527;-62
2023/06/28 09:24:39;;;;;;;;;9.00;8.75;27.10;52.90;;;;;;110311;1250;48502;-62
2023/06/28 09:27:07;;;;;;;;;11.25;10.50;27.10;52.90;;;;;;110304;1254;53691;-62
2023/06/28 09:29:34;;;;;;;;;8.25;8.25;27.10;52.90;;;;;;110284;1254;44513;-62
2023/06/28 09:32:01;;;;;;;;;8.00;7.25;27.20;52.90;;;;;;110276;1250;49214;-63
2023/06/28 09:34:28;;;;;;;;;10.00;9.25;27.20;52.90;;;;;;110259;1251;49119;-62
2023/06/28 09:36:57;;;;;;;;;9.67;9.00;27.20;52.90;;;;;;110218;1254;53873;-64
2023/06/28 09:39:25;;;;;;;;;8.25;7.25;27.20;53.20;;;;;;110292;1250;44103;-62
2023/06/28 09:41:53;;;;;;;;;9.25;9.25;27.20;53.10;;;;;;110288;1251;48659;-63
2023/06/28 09:44:28;;;;;;;;;9.25;9.00;27.20;52.90;;;;;;110294;1250;49189;-62
2023/06/28 09:47:05;;;;;;;;;9.00;8.00;27.20;52.90;;;;;;110288;1250;53766;-64
2023/06/28 09:49:32;;;;;;;;;8.00;8.00;27.20;53.00;;;;;;111246;1243;44962;-63
2023/06/28 09:52:04;;;;;;;;;10.50;9.75;27.20;52.90;;;;;;111315;1239;48515;-63
2023/06/28 09:54:44;;;;;;;;;10.00;9.00;27.20;52.90;;;;;;111231;1243;49078;-62
2023/06/28 09:57:12;;;;;;;;;11.00;9.00;27.20;52.90;;;;;;111228;1242;53556;-62
2023/06/28 09:59:39;;;;;;;;;9.33;8.33;27.20;52.80;;;;;;111250;1238;44243;-65
2023/06/28 10:02:08;;;;;;;;;8.50;7.75;27.30;53.00;;;;;;111281;1238;49557;-63
2023/06/28 10:04:37;;;;;;;;;9.25;8.25;27.30;52.80;;;;;;111389;1243;49198;-62
2023/06/28 10:07:05;;;;;;;;;9.25;8.25;27.30;52.80;;;;;;111382;1240;54246;-61
2023/06/28 10:09:40;;;;;;;;;10.00;10.00;27.20;52.70;;;;;;111270;1239;44524;-61
2023/06/28 10:12:16;;;;;;;;;11.00;9.00;27.30;52.80;;;;;;111293;1238;49013;-62
2023/06/28 10:14:49;;;;;;;;;9.00;8.00;27.30;52.80;;;;;;111262;1240;50255;-62
2023/06/28 10:17:16;;;;;;;;;9.00;8.00;27.30;52.80;;;;;;111243;1243;55077;-63
2023/06/28 10:19:43;;;;;;;;;9.50;8.25;27.30;52.70;;;;;;111202;1238;45748;-64
2023/06/28 10:22:11;;;;;;;;;10.75;10.75;27.30;52.70;;;;;;111220;1240;49289;-61
2023/06/28 10:24:38;;;;;;;;;11.00;9.75;27.30;52.80;;;;;;111317;1238;49215;-62
2023/06/28 10:27:06;;;;;;;;;9.75;9.00;27.30;52.90;;;;;;111290;1243;53333;-61
2023/06/28 10:29:33;;;;;;;;;9.00;8.67;27.30;52.70;;;;;;111238;1244;44341;-62
2023/06/28 10:32:01;;;;;;;;;11.00;11.00;27.30;52.70;;;;;;111272;1240;49553;-62
2023/06/28 10:34:28;;;;;;;;;11.00;10.00;27.30;52.70;;;;;;111241;1239;49711;-62
2023/06/28 10:36:58;;;;;;;;;9.00;8.00;27.30;52.70;;;;;;111224;1238;54313;-62
2023/06/28 10:39:25;;;;;;;;;12.75;9.75;27.40;52.80;;;;;;111229;1239;44721;-61
2023/06/28 10:41:57;;;;;;;;;10.00;9.33;27.30;52.90;;;;;;111278;1239;50470;-61
2023/06/28 10:44:24;;;;;;;;;8.00;7.00;27.30;52.70;;;;;;111239;1242;49297;-61
2023/06/28 10:47:12;;;;;;;;;9.50;9.00;27.30;52.70;;;;;;111243;1243;54532;-61
2023/06/28 10:49:43;;;;;;;;;9.50;8.00;27.40;52.80;;;;;;111255;1238;44504;-62
2023/06/28 10:52:14;;;;;;;;;8.00;7.00;27.40;52.70;;;;;;111250;1243;48959;-63
2023/06/28 10:54:41;;;;;;;;;9.75;8.50;27.40;52.70;;;;;;111267;1244;48545;-61
2023/06/28 10:57:10;;;;;;;;;11.00;9.00;27.40;52.90;;;;;;111268;1238;54329;-63
2023/06/28 10:59:41;;;;;;;;;11.50;10.75;27.40;52.60;;;;;;111300;1243;44315;-62
2023/06/28 11:02:08;;;;;;;;;9.00;8.00;27.40;52.80;;;;;;111240;1238;48975;-62
2023/06/28 11:04:52;;;;;;;;;10.00;9.00;27.40;52.70;;;;;;111245;1241;50341;-62
2023/06/28 11:07:23;;;;;;;;;8.25;8.25;27.40;52.70;;;;;;111254;1238;53684;-62
2023/06/28 11:10:16;;;;;;;;;9.00;8.00;27.40;52.70;;;;;;111321;1241;45461;-62
2023/06/28 11:12:47;;;;;;;;;10.00;9.33;27.40;52.70;;;;;;111285;1238;49885;-61
2023/06/28 11:15:14;;;;;;;;;10.50;8.00;27.40;52.60;;;;;;111304;1242;49582;-61
2023/06/28 11:17:41;;;;;;;;;10.33;9.33;27.40;52.70;;;;;;111235;1243;53697;-61
2023/06/28 11:20:12;;;;;;;;;9.00;9.00;27.40;52.70;;;;;;111259;1238;45769;-62
2023/06/28 11:22:59;;;;;;;;;9.00;8.25;27.40;52.70;;;;;;111427;1239;48362;-64
2023/06/28 11:25:29;;;;;;;;;9.75;9.00;27.40;52.70;;;;;;111209;1240;48741;-62
2023/06/28 11:27:57;;;;;;;;;8.33;8.00;27.40;52.70;;;;;;111314;1239;54062;-62
2023/06/28 11:30:47;;;;;;;;;10.00;9.00;27.40;52.70;;;;;;111300;1243;44584;-61
2023/06/28 11:33:15;;;;;;;;;11.00;10.00;27.40;52.60;;;;;;111275;1238;48762;-62
2023/06/28 11:35:42;;;;;;;;;9.00;8.00;27.40;52.60;;;;;;111251;1243;50336;-63
2023/06/28 11:38:10;;;;;;;;;10.00;9.67;27.40;52.70;;;;;;111231;1240;53346;-64
2023/06/28 11:40:38;;;;;;;;;9.00;8.00;27.40;53.20;;;;;;111332;1240;44796;-61
2023/06/28 11:43:05;;;;;;;;;8.50;8.00;27.40;52.80;;;;;;111272;1240;49016;-62
2023/06/28 11:45:32;;;;;;;;;9.00;8.00;27.40;52.70;;;;;;111300;1238;49191;-62
2023/06/28 11:48:00;;;;;;;;;8.50;8.25;27.40;52.70;;;;;;111251;1238;53925;-61
2023/06/28 11:50:27;;;;;;;;;10.00;10.00;27.40;52.90;;;;;;111237;1241;45432;-62
2023/06/28 11:52:54;;;;;;;;;9.50;9.25;27.40;52.90;;;;;;111271;1238;49758;-62
2023/06/28 11:55:21;;;;;;;;;9.67;8.00;27.40;52.70;;;;;;111349;1240;50390;-62
2023/06/28 11:57:48;;;;;;;;;10.00;9.00;27.40;52.70;;;;;;111262;1240;54522;-62
2023/06/28 12:00:17;;;;;;;;;8.67;8.00;27.30;52.60;;;;;;111241;1238;44560;-62
2023/06/28 12:02:51;;;;;;;;;9.25;9.00;27.30;52.60;;;;;;111314;1243;49035;-61
2023/06/28 12:05:21;;;;;;;;;9.75;8.75;27.30;52.80;;;;;;111335;1239;49433;-62
2023/06/28 12:07:48;;;;;;;;;9.00;8.00;27.30;52.60;;;;;;111255;1243;54630;-62
2023/06/28 12:10:16;;;;;;;;;10.33;9.33;27.30;52.60;;;;;;111278;1243;44414;-62
2023/06/28 12:12:43;;;;;;;;;9.00;8.00;27.30;52.80;;;;;;111230;1241;49587;-62
2023/06/28 12:15:14;;;;;;;;;8.50;7.50;27.30;52.70;;;;;;111288;1243;49624;-62
2023/06/28 12:17:43;;;;;;;;;8.25;7.75;27.40;52.90;;;;;;111381;1242;53367;-63
2023/06/28 12:20:12;;;;;;;;;9.75;9.00;27.40;52.90;;;;;;111309;1242;45125;-64
2023/06/28 12:22:44;;;;;;;;;10.25;9.00;27.40;52.60;;;;;;111265;1243;49407;-62
2023/06/28 12:25:12;;;;;;;;;10.00;9.00;27.40;52.60;;;;;;111270;1243;48997;-62
2023/06/28 12:27:39;;;;;;;;;9.00;9.00;27.40;52.80;;;;;;111297;1240;53921;-61
2023/06/28 12:30:14;;;;;;;;;11.00;10.00;27.40;53.10;;;;;;111366;1243;44405;-63
2023/06/28 12:32:44;;;;;;;;;11.00;10.00;27.40;52.60;;;;;;111276;1243;49356;-61
2023/06/28 12:35:25;;;;;;;;;9.25;8.25;27.40;52.60;;;;;;111286;1243;49561;-62
2023/06/28 12:37:56;;;;;;;;;8.00;7.33;27.40;52.80;;;;;;111297;1241;53871;-62
2023/06/28 12:40:31;;;;;;;;;9.00;8.00;27.40;52.70;;;;;;111301;1238;44245;-61